sensor_id;sensor_type;location;lat;lon;timestamp;P1;durP1;ratioP1;P2;durP2;ratioP2
12429;SDS011;6279;42.192;24.326;2022-10-31T00:00:19;5.77;;;2.40;;
12429;SDS011;6279;42.192;24.326;2022-10-31T00:02:45;3.83;;;2.87;;
12429;SDS011;6279;42.192;24.326;2022-10-31T00:05:10;3.87;;;2.30;;
12429;SDS011;6279;42.192;24.326;2022-10-31T00:07:36;7.23;;;2.43;;
12429;SDS011;6279;42.192;24.326;2022-10-31T00:10:04;4.33;;;2.97;;
12429;SDS011;6279;42.192;24.326;2022-10-31T00:12:30;4.20;;;3.00;;
12429;SDS011;6279;42.192;24.326;2022-10-31T00:14:55;6.43;;;2.83;;
12429;SDS011;6279;42.192;24.326;2022-10-31T00:17:21;5.17;;;2.70;;
12429;SDS011;6279;42.192;24.326;2022-10-31T00:19:46;5.90;;;2.60;;
12429;SDS011;6279;42.192;24.326;2022-10-31T00:22:12;5.57;;;2.70;;
12429;SDS011;6279;42.192;24.326;2022-10-31T00:24:37;5.73;;;2.50;;
12429;SDS011;6279;42.192;24.326;2022-10-31T00:27:02;5.60;;;3.60;;
12429;SDS011;6279;42.192;24.326;2022-10-31T00:29:28;3.90;;;2.50;;
12429;SDS011;6279;42.192;24.326;2022-10-31T00:31:53;6.53;;;2.93;;
12429;SDS011;6279;42.192;24.326;2022-10-31T00:34:18;3.87;;;2.50;;
12429;SDS011;6279;42.192;24.326;2022-10-31T00:36:44;7.40;;;3.47;;
12429;SDS011;6279;42.192;24.326;2022-10-31T00:39:09;3.40;;;2.57;;
12429;SDS011;6279;42.192;24.326;2022-10-31T00:41:34;6.47;;;2.73;;
12429;SDS011;6279;42.192;24.326;2022-10-31T00:44:00;5.97;;;2.60;;
12429;SDS011;6279;42.192;24.326;2022-10-31T00:46:25;6.07;;;2.40;;
12429;SDS011;6279;42.192;24.326;2022-10-31T00:48:51;5.77;;;2.97;;
12429;SDS011;6279;42.192;24.326;2022-10-31T00:51:16;7.07;;;2.70;;
12429;SDS011;6279;42.192;24.326;2022-10-31T00:53:42;3.87;;;2.63;;
12429;SDS011;6279;42.192;24.326;2022-10-31T00:56:07;4.13;;;2.67;;
12429;SDS011;6279;42.192;24.326;2022-10-31T00:58:33;4.63;;;2.43;;
12429;SDS011;6279;42.192;24.326;2022-10-31T01:00:58;4.07;;;2.60;;
12429;SDS011;6279;42.192;24.326;2022-10-31T01:03:24;5.13;;;2.90;;
12429;SDS011;6279;42.192;24.326;2022-10-31T01:05:58;5.40;;;2.80;;
12429;SDS011;6279;42.192;24.326;2022-10-31T01:08:27;6.43;;;2.77;;
12429;SDS011;6279;42.192;24.326;2022-10-31T01:11:03;7.53;;;2.93;;
12429;SDS011;6279;42.192;24.326;2022-10-31T01:13:43;7.07;;;2.73;;
12429;SDS011;6279;42.192;24.326;2022-10-31T01:16:10;4.50;;;2.50;;
12429;SDS011;6279;42.192;24.326;2022-10-31T01:18:36;4.83;;;3.10;;
12429;SDS011;6279;42.192;24.326;2022-10-31T01:21:04;5.13;;;2.70;;
12429;SDS011;6279;42.192;24.326;2022-10-31T01:23:30;6.03;;;2.70;;
12429;SDS011;6279;42.192;24.326;2022-10-31T01:25:59;5.93;;;3.13;;
12429;SDS011;6279;42.192;24.326;2022-10-31T01:29:05;7.20;;;2.77;;
12429;SDS011;6279;42.192;24.326;2022-10-31T01:31:31;5.70;;;2.70;;
12429;SDS011;6279;42.192;24.326;2022-10-31T01:33:58;5.17;;;2.57;;
12429;SDS011;6279;42.192;24.326;2022-10-31T01:36:28;4.83;;;2.80;;
12429;SDS011;6279;42.192;24.326;2022-10-31T01:38:56;3.60;;;2.67;;
12429;SDS011;6279;42.192;24.326;2022-10-31T01:41:24;5.73;;;2.73;;
12429;SDS011;6279;42.192;24.326;2022-10-31T01:43:53;5.87;;;2.60;;
12429;SDS011;6279;42.192;24.326;2022-10-31T01:46:22;5.87;;;2.47;;
12429;SDS011;6279;42.192;24.326;2022-10-31T01:49:13;3.53;;;2.63;;
12429;SDS011;6279;42.192;24.326;2022-10-31T01:51:44;7.40;;;3.00;;
12429;SDS011;6279;42.192;24.326;2022-10-31T01:54:16;5.03;;;2.97;;
12429;SDS011;6279;42.192;24.326;2022-10-31T01:56:46;3.40;;;2.60;;
12429;SDS011;6279;42.192;24.326;2022-10-31T01:59:15;5.07;;;2.37;;
12429;SDS011;6279;42.192;24.326;2022-10-31T02:01:44;4.97;;;2.63;;
12429;SDS011;6279;42.192;24.326;2022-10-31T02:04:10;6.00;;;2.50;;
12429;SDS011;6279;42.192;24.326;2022-10-31T02:06:41;6.67;;;3.00;;
12429;SDS011;6279;42.192;24.326;2022-10-31T02:09:11;5.47;;;3.20;;
12429;SDS011;6279;42.192;24.326;2022-10-31T02:11:37;4.97;;;2.40;;
12429;SDS011;6279;42.192;24.326;2022-10-31T02:14:03;6.73;;;3.30;;
12429;SDS011;6279;42.192;24.326;2022-10-31T02:16:28;4.17;;;2.30;;
12429;SDS011;6279;42.192;24.326;2022-10-31T02:18:54;5.73;;;2.60;;
12429;SDS011;6279;42.192;24.326;2022-10-31T02:24:16;3.57;;;2.40;;
12429;SDS011;6279;42.192;24.326;2022-10-31T02:27:07;6.43;;;2.87;;
12429;SDS011;6279;42.192;24.326;2022-10-31T02:35:28;4.50;;;3.07;;
12429;SDS011;6279;42.192;24.326;2022-10-31T02:41:23;5.00;;;2.70;;
12429;SDS011;6279;42.192;24.326;2022-10-31T02:44:00;5.97;;;2.67;;
12429;SDS011;6279;42.192;24.326;2022-10-31T02:46:30;7.03;;;2.80;;
12429;SDS011;6279;42.192;24.326;2022-10-31T02:49:03;3.10;;;2.40;;
12429;SDS011;6279;42.192;24.326;2022-10-31T02:51:35;4.37;;;2.30;;
12429;SDS011;6279;42.192;24.326;2022-10-31T02:54:00;5.00;;;2.70;;
12429;SDS011;6279;42.192;24.326;2022-10-31T02:56:26;4.60;;;2.57;;
12429;SDS011;6279;42.192;24.326;2022-10-31T02:58:59;3.40;;;2.30;;
12429;SDS011;6279;42.192;24.326;2022-10-31T03:06:44;7.10;;;2.63;;
12429;SDS011;6279;42.192;24.326;2022-10-31T03:09:20;6.40;;;2.40;;
12429;SDS011;6279;42.192;24.326;2022-10-31T03:18:21;4.90;;;2.07;;
12429;SDS011;6279;42.192;24.326;2022-10-31T03:20:56;6.27;;;2.17;;
12429;SDS011;6279;42.192;24.326;2022-10-31T03:23:29;6.23;;;2.37;;
12429;SDS011;6279;42.192;24.326;2022-10-31T03:25:56;3.13;;;2.47;;
12429;SDS011;6279;42.192;24.326;2022-10-31T03:28:29;2.63;;;2.10;;
12429;SDS011;6279;42.192;24.326;2022-10-31T03:30:59;6.80;;;2.77;;
12429;SDS011;6279;42.192;24.326;2022-10-31T03:33:27;4.83;;;2.57;;
12429;SDS011;6279;42.192;24.326;2022-10-31T03:35:55;6.87;;;2.73;;
12429;SDS011;6279;42.192;24.326;2022-10-31T03:38:23;4.27;;;2.50;;
12429;SDS011;6279;42.192;24.326;2022-10-31T03:40:49;6.13;;;2.53;;
12429;SDS011;6279;42.192;24.326;2022-10-31T03:43:18;5.57;;;2.73;;
12429;SDS011;6279;42.192;24.326;2022-10-31T03:45:49;4.37;;;2.43;;
12429;SDS011;6279;42.192;24.326;2022-10-31T03:48:16;4.30;;;2.10;;
12429;SDS011;6279;42.192;24.326;2022-10-31T03:56:34;6.87;;;2.67;;
12429;SDS011;6279;42.192;24.326;2022-10-31T03:59:06;8.73;;;2.60;;
12429;SDS011;6279;42.192;24.326;2022-10-31T04:01:37;2.90;;;2.30;;
12429;SDS011;6279;42.192;24.326;2022-10-31T04:04:05;5.93;;;2.30;;
12429;SDS011;6279;42.192;24.326;2022-10-31T04:06:31;3.93;;;2.40;;
12429;SDS011;6279;42.192;24.326;2022-10-31T04:09:00;7.13;;;2.40;;
12429;SDS011;6279;42.192;24.326;2022-10-31T04:11:30;4.80;;;2.67;;
12429;SDS011;6279;42.192;24.326;2022-10-31T04:13:59;6.20;;;2.43;;
12429;SDS011;6279;42.192;24.326;2022-10-31T04:16:27;4.00;;;2.47;;
12429;SDS011;6279;42.192;24.326;2022-10-31T04:18:53;7.23;;;3.00;;
12429;SDS011;6279;42.192;24.326;2022-10-31T04:21:19;6.53;;;2.90;;
12429;SDS011;6279;42.192;24.326;2022-10-31T04:23:44;7.43;;;2.40;;
12429;SDS011;6279;42.192;24.326;2022-10-31T04:26:10;3.77;;;2.40;;
12429;SDS011;6279;42.192;24.326;2022-10-31T04:28:37;4.77;;;2.47;;
12429;SDS011;6279;42.192;24.326;2022-10-31T04:31:02;4.07;;;2.50;;
12429;SDS011;6279;42.192;24.326;2022-10-31T04:33:27;4.63;;;2.90;;
12429;SDS011;6279;42.192;24.326;2022-10-31T04:35:53;4.83;;;2.83;;
12429;SDS011;6279;42.192;24.326;2022-10-31T04:38:18;6.03;;;2.70;;
12429;SDS011;6279;42.192;24.326;2022-10-31T04:40:44;5.97;;;2.37;;
12429;SDS011;6279;42.192;24.326;2022-10-31T04:43:10;5.07;;;2.53;;
12429;SDS011;6279;42.192;24.326;2022-10-31T04:45:36;4.40;;;2.73;;
12429;SDS011;6279;42.192;24.326;2022-10-31T04:48:02;6.00;;;3.07;;
12429;SDS011;6279;42.192;24.326;2022-10-31T04:50:27;5.63;;;2.50;;
12429;SDS011;6279;42.192;24.326;2022-10-31T04:52:53;7.83;;;2.50;;
12429;SDS011;6279;42.192;24.326;2022-10-31T04:55:18;5.90;;;3.10;;
12429;SDS011;6279;42.192;24.326;2022-10-31T04:57:44;5.63;;;2.87;;
12429;SDS011;6279;42.192;24.326;2022-10-31T05:00:15;3.77;;;2.53;;
12429;SDS011;6279;42.192;24.326;2022-10-31T05:02:46;6.20;;;2.77;;
12429;SDS011;6279;42.192;24.326;2022-10-31T05:05:14;8.27;;;2.57;;
12429;SDS011;6279;42.192;24.326;2022-10-31T05:07:40;3.70;;;2.47;;
12429;SDS011;6279;42.192;24.326;2022-10-31T05:10:11;4.67;;;2.50;;
12429;SDS011;6279;42.192;24.326;2022-10-31T05:12:37;4.83;;;3.03;;
12429;SDS011;6279;42.192;24.326;2022-10-31T05:15:09;7.13;;;3.40;;
12429;SDS011;6279;42.192;24.326;2022-10-31T05:17:35;6.07;;;4.03;;
12429;SDS011;6279;42.192;24.326;2022-10-31T05:20:00;7.93;;;4.03;;
12429;SDS011;6279;42.192;24.326;2022-10-31T05:22:26;8.80;;;2.93;;
12429;SDS011;6279;42.192;24.326;2022-10-31T05:24:51;13.43;;;3.27;;
12429;SDS011;6279;42.192;24.326;2022-10-31T05:27:16;5.67;;;2.70;;
12429;SDS011;6279;42.192;24.326;2022-10-31T05:29:42;12.73;;;2.97;;
12429;SDS011;6279;42.192;24.326;2022-10-31T05:32:07;6.00;;;2.80;;
12429;SDS011;6279;42.192;24.326;2022-10-31T05:34:32;5.83;;;2.87;;
12429;SDS011;6279;42.192;24.326;2022-10-31T05:36:58;5.03;;;2.33;;
12429;SDS011;6279;42.192;24.326;2022-10-31T05:39:23;6.83;;;2.77;;
12429;SDS011;6279;42.192;24.326;2022-10-31T05:41:49;7.00;;;2.57;;
12429;SDS011;6279;42.192;24.326;2022-10-31T05:44:14;9.07;;;2.67;;
12429;SDS011;6279;42.192;24.326;2022-10-31T05:46:39;6.47;;;2.50;;
12429;SDS011;6279;42.192;24.326;2022-10-31T05:49:05;4.37;;;2.50;;
12429;SDS011;6279;42.192;24.326;2022-10-31T05:51:30;5.53;;;2.40;;
12429;SDS011;6279;42.192;24.326;2022-10-31T05:53:55;8.70;;;3.08;;
12429;SDS011;6279;42.192;24.326;2022-10-31T05:56:21;6.73;;;2.70;;
12429;SDS011;6279;42.192;24.326;2022-10-31T05:58:46;7.60;;;2.80;;
12429;SDS011;6279;42.192;24.326;2022-10-31T06:01:11;7.87;;;2.87;;
12429;SDS011;6279;42.192;24.326;2022-10-31T06:03:37;8.83;;;3.03;;
12429;SDS011;6279;42.192;24.326;2022-10-31T06:06:02;6.20;;;2.80;;
12429;SDS011;6279;42.192;24.326;2022-10-31T06:08:28;8.03;;;3.20;;
12429;SDS011;6279;42.192;24.326;2022-10-31T06:10:53;8.57;;;3.30;;
12429;SDS011;6279;42.192;24.326;2022-10-31T06:13:19;5.23;;;2.77;;
12429;SDS011;6279;42.192;24.326;2022-10-31T06:15:44;7.30;;;2.97;;
12429;SDS011;6279;42.192;24.326;2022-10-31T06:18:09;7.90;;;3.60;;
12429;SDS011;6279;42.192;24.326;2022-10-31T06:20:35;7.80;;;3.23;;
12429;SDS011;6279;42.192;24.326;2022-10-31T06:23:00;9.37;;;3.17;;
12429;SDS011;6279;42.192;24.326;2022-10-31T06:25:26;7.37;;;2.90;;
12429;SDS011;6279;42.192;24.326;2022-10-31T06:27:52;11.13;;;3.40;;
12429;SDS011;6279;42.192;24.326;2022-10-31T06:30:17;8.97;;;2.60;;
12429;SDS011;6279;42.192;24.326;2022-10-31T06:32:43;6.07;;;2.80;;
12429;SDS011;6279;42.192;24.326;2022-10-31T06:35:08;7.57;;;3.20;;
12429;SDS011;6279;42.192;24.326;2022-10-31T06:37:34;10.70;;;3.47;;
12429;SDS011;6279;42.192;24.326;2022-10-31T06:40:00;8.70;;;3.50;;
12429;SDS011;6279;42.192;24.326;2022-10-31T06:42:25;6.72;;;3.10;;
12429;SDS011;6279;42.192;24.326;2022-10-31T06:44:50;8.18;;;3.03;;
12429;SDS011;6279;42.192;24.326;2022-10-31T06:47:16;7.55;;;3.00;;
12429;SDS011;6279;42.192;24.326;2022-10-31T06:49:41;6.35;;;2.47;;
12429;SDS011;6279;42.192;24.326;2022-10-31T06:52:09;3.88;;;2.80;;
12429;SDS011;6279;42.192;24.326;2022-10-31T06:54:35;7.53;;;2.72;;
12429;SDS011;6279;42.192;24.326;2022-10-31T06:57:00;4.10;;;2.60;;
12429;SDS011;6279;42.192;24.326;2022-10-31T06:59:25;8.40;;;2.95;;
12429;SDS011;6279;42.192;24.326;2022-10-31T07:01:51;7.32;;;2.35;;
12429;SDS011;6279;42.192;24.326;2022-10-31T07:04:16;8.98;;;2.92;;
12429;SDS011;6279;42.192;24.326;2022-10-31T07:06:41;6.18;;;2.67;;
12429;SDS011;6279;42.192;24.326;2022-10-31T07:09:07;8.10;;;2.70;;
12429;SDS011;6279;42.192;24.326;2022-10-31T07:11:32;6.85;;;2.60;;
12429;SDS011;6279;42.192;24.326;2022-10-31T07:13:58;7.53;;;2.75;;
12429;SDS011;6279;42.192;24.326;2022-10-31T07:16:23;8.43;;;2.60;;
12429;SDS011;6279;42.192;24.326;2022-10-31T07:18:48;4.78;;;2.38;;
12429;SDS011;6279;42.192;24.326;2022-10-31T07:21:15;5.68;;;2.45;;
12429;SDS011;6279;42.192;24.326;2022-10-31T07:23:40;4.70;;;2.47;;
12429;SDS011;6279;42.192;24.326;2022-10-31T07:26:05;8.63;;;2.50;;
12429;SDS011;6279;42.192;24.326;2022-10-31T07:28:31;5.57;;;2.40;;
12429;SDS011;6279;42.192;24.326;2022-10-31T07:30:57;5.65;;;2.60;;
12429;SDS011;6279;42.192;24.326;2022-10-31T07:33:23;3.78;;;2.50;;
12429;SDS011;6279;42.192;24.326;2022-10-31T07:35:51;8.35;;;2.55;;
12429;SDS011;6279;42.192;24.326;2022-10-31T07:38:16;6.55;;;2.90;;
12429;SDS011;6279;42.192;24.326;2022-10-31T07:40:42;7.10;;;2.78;;
12429;SDS011;6279;42.192;24.326;2022-10-31T07:43:07;3.75;;;2.50;;
12429;SDS011;6279;42.192;24.326;2022-10-31T07:45:35;6.78;;;2.80;;
12429;SDS011;6279;42.192;24.326;2022-10-31T07:48:00;6.80;;;2.55;;
12429;SDS011;6279;42.192;24.326;2022-10-31T07:50:28;7.30;;;3.00;;
12429;SDS011;6279;42.192;24.326;2022-10-31T07:52:58;4.07;;;2.30;;
12429;SDS011;6279;42.192;24.326;2022-10-31T07:55:31;6.00;;;2.70;;
12429;SDS011;6279;42.192;24.326;2022-10-31T08:00:22;5.38;;;2.28;;
12429;SDS011;6279;42.192;24.326;2022-10-31T08:02:48;5.28;;;2.65;;
12429;SDS011;6279;42.192;24.326;2022-10-31T08:05:13;4.35;;;2.17;;
12429;SDS011;6279;42.192;24.326;2022-10-31T08:07:39;8.38;;;2.58;;
12429;SDS011;6279;42.192;24.326;2022-10-31T08:10:07;5.00;;;2.47;;
12429;SDS011;6279;42.192;24.326;2022-10-31T08:12:32;3.35;;;2.03;;
12429;SDS011;6279;42.192;24.326;2022-10-31T08:14:58;5.65;;;2.40;;
12429;SDS011;6279;42.192;24.326;2022-10-31T08:17:23;3.88;;;2.17;;
12429;SDS011;6279;42.192;24.326;2022-10-31T08:19:48;5.22;;;2.58;;
12429;SDS011;6279;42.192;24.326;2022-10-31T08:22:14;7.05;;;2.38;;
12429;SDS011;6279;42.192;24.326;2022-10-31T08:24:39;7.70;;;2.70;;
12429;SDS011;6279;42.192;24.326;2022-10-31T08:27:05;6.43;;;2.28;;
12429;SDS011;6279;42.192;24.326;2022-10-31T08:29:30;4.38;;;2.38;;
12429;SDS011;6279;42.192;24.326;2022-10-31T08:31:57;9.38;;;2.63;;
12429;SDS011;6279;42.192;24.326;2022-10-31T08:34:23;4.50;;;2.00;;
12429;SDS011;6279;42.192;24.326;2022-10-31T08:36:49;5.32;;;2.00;;
12429;SDS011;6279;42.192;24.326;2022-10-31T08:39:14;6.70;;;2.17;;
12429;SDS011;6279;42.192;24.326;2022-10-31T08:41:39;4.75;;;2.00;;
12429;SDS011;6279;42.192;24.326;2022-10-31T08:44:05;5.97;;;2.35;;
12429;SDS011;6279;42.192;24.326;2022-10-31T08:46:30;4.78;;;1.88;;
12429;SDS011;6279;42.192;24.326;2022-10-31T08:48:56;4.80;;;2.25;;
12429;SDS011;6279;42.192;24.326;2022-10-31T08:51:22;4.40;;;1.90;;
12429;SDS011;6279;42.192;24.326;2022-10-31T08:53:47;3.95;;;2.30;;
12429;SDS011;6279;42.192;24.326;2022-10-31T08:56:12;7.82;;;2.95;;
12429;SDS011;6279;42.192;24.326;2022-10-31T08:58:38;5.45;;;3.25;;
12429;SDS011;6279;42.192;24.326;2022-10-31T09:01:03;4.03;;;2.22;;
12429;SDS011;6279;42.192;24.326;2022-10-31T09:03:29;5.00;;;1.85;;
12429;SDS011;6279;42.192;24.326;2022-10-31T09:05:57;6.70;;;3.17;;
12429;SDS011;6279;42.192;24.326;2022-10-31T09:08:24;4.32;;;2.33;;
12429;SDS011;6279;42.192;24.326;2022-10-31T09:10:50;3.40;;;1.88;;
12429;SDS011;6279;42.192;24.326;2022-10-31T09:13:17;4.82;;;2.10;;
12429;SDS011;6279;42.192;24.326;2022-10-31T09:15:44;6.78;;;1.90;;
12429;SDS011;6279;42.192;24.326;2022-10-31T09:18:11;4.72;;;1.80;;
12429;SDS011;6279;42.192;24.326;2022-10-31T09:20:38;4.85;;;1.75;;
12429;SDS011;6279;42.192;24.326;2022-10-31T09:23:14;6.82;;;1.88;;
12429;SDS011;6279;42.192;24.326;2022-10-31T09:25:44;6.65;;;1.98;;
12429;SDS011;6279;42.192;24.326;2022-10-31T09:28:11;3.97;;;1.70;;
12429;SDS011;6279;42.192;24.326;2022-10-31T09:30:38;5.15;;;1.70;;
12429;SDS011;6279;42.192;24.326;2022-10-31T09:33:05;5.80;;;1.63;;
12429;SDS011;6279;42.192;24.326;2022-10-31T09:35:31;2.22;;;1.50;;
12429;SDS011;6279;42.192;24.326;2022-10-31T09:37:58;3.88;;;1.63;;
12429;SDS011;6279;42.192;24.326;2022-10-31T09:40:38;4.30;;;1.73;;
12429;SDS011;6279;42.192;24.326;2022-10-31T09:43:20;2.63;;;1.63;;
12429;SDS011;6279;42.192;24.326;2022-10-31T09:51:39;3.53;;;1.88;;
12429;SDS011;6279;42.192;24.326;2022-10-31T09:56:39;4.50;;;2.33;;
12429;SDS011;6279;42.192;24.326;2022-10-31T09:59:05;3.60;;;1.70;;
12429;SDS011;6279;42.192;24.326;2022-10-31T10:04:53;3.53;;;1.70;;
12429;SDS011;6279;42.192;24.326;2022-10-31T10:08:01;5.93;;;2.47;;
12429;SDS011;6279;42.192;24.326;2022-10-31T10:18:28;4.20;;;1.30;;
12429;SDS011;6279;42.192;24.326;2022-10-31T10:24:12;5.40;;;2.08;;
12429;SDS011;6279;42.192;24.326;2022-10-31T10:26:41;4.13;;;2.95;;
12429;SDS011;6279;42.192;24.326;2022-10-31T10:32:58;5.30;;;2.25;;
12429;SDS011;6279;42.192;24.326;2022-10-31T10:35:34;2.15;;;1.45;;
12429;SDS011;6279;42.192;24.326;2022-10-31T10:41:18;1.92;;;1.17;;
12429;SDS011;6279;42.192;24.326;2022-10-31T10:43:48;5.78;;;1.60;;
12429;SDS011;6279;42.192;24.326;2022-10-31T10:51:59;3.70;;;2.10;;
12429;SDS011;6279;42.192;24.326;2022-10-31T11:00:22;7.03;;;4.05;;
12429;SDS011;6279;42.192;24.326;2022-10-31T11:02:48;5.35;;;2.22;;
12429;SDS011;6279;42.192;24.326;2022-10-31T11:08:07;7.90;;;5.32;;
12429;SDS011;6279;42.192;24.326;2022-10-31T11:10:33;6.80;;;2.20;;
12429;SDS011;6279;42.192;24.326;2022-10-31T11:15:32;4.53;;;2.63;;
12429;SDS011;6279;42.192;24.326;2022-10-31T11:18:02;3.88;;;2.65;;
12429;SDS011;6279;42.192;24.326;2022-10-31T11:20:33;6.93;;;2.47;;
12429;SDS011;6279;42.192;24.326;2022-10-31T11:23:19;6.20;;;1.90;;
12429;SDS011;6279;42.192;24.326;2022-10-31T11:26:19;3.38;;;1.90;;
12429;SDS011;6279;42.192;24.326;2022-10-31T11:28:44;3.92;;;1.48;;
12429;SDS011;6279;42.192;24.326;2022-10-31T11:31:21;6.68;;;2.10;;
12429;SDS011;6279;42.192;24.326;2022-10-31T11:33:48;3.83;;;2.03;;
12429;SDS011;6279;42.192;24.326;2022-10-31T11:36:23;5.55;;;2.10;;
12429;SDS011;6279;42.192;24.326;2022-10-31T11:38:50;3.63;;;1.80;;
12429;SDS011;6279;42.192;24.326;2022-10-31T11:41:18;2.90;;;1.50;;
12429;SDS011;6279;42.192;24.326;2022-10-31T11:43:56;3.45;;;1.88;;
12429;SDS011;6279;42.192;24.326;2022-10-31T11:46:33;2.83;;;1.60;;
12429;SDS011;6279;42.192;24.326;2022-10-31T11:48:59;5.57;;;1.92;;
12429;SDS011;6279;42.192;24.326;2022-10-31T11:51:25;4.22;;;1.63;;
12429;SDS011;6279;42.192;24.326;2022-10-31T11:53:54;4.97;;;2.13;;
12429;SDS011;6279;42.192;24.326;2022-10-31T11:56:22;7.60;;;2.10;;
12429;SDS011;6279;42.192;24.326;2022-10-31T11:59:02;6.65;;;2.30;;
12429;SDS011;6279;42.192;24.326;2022-10-31T12:01:31;5.03;;;2.20;;
12429;SDS011;6279;42.192;24.326;2022-10-31T12:04:10;7.15;;;2.25;;
12429;SDS011;6279;42.192;24.326;2022-10-31T12:06:40;5.32;;;1.92;;
12429;SDS011;6279;42.192;24.326;2022-10-31T12:09:18;2.88;;;2.00;;
12429;SDS011;6279;42.192;24.326;2022-10-31T12:17:19;3.90;;;2.60;;
12429;SDS011;6279;42.192;24.326;2022-10-31T12:22:41;3.15;;;1.67;;
12429;SDS011;6279;42.192;24.326;2022-10-31T12:25:13;3.22;;;1.98;;
12429;SDS011;6279;42.192;24.326;2022-10-31T12:30:15;7.45;;;2.40;;
12429;SDS011;6279;42.192;24.326;2022-10-31T12:35:44;7.88;;;2.35;;
12429;SDS011;6279;42.192;24.326;2022-10-31T12:43:56;5.65;;;2.05;;
12429;SDS011;6279;42.192;24.326;2022-10-31T12:49:34;5.72;;;2.17;;
12429;SDS011;6279;42.192;24.326;2022-10-31T12:54:54;5.65;;;2.10;;
12429;SDS011;6279;42.192;24.326;2022-10-31T12:57:32;9.18;;;2.50;;
12429;SDS011;6279;42.192;24.326;2022-10-31T13:00:14;9.70;;;2.40;;
12429;SDS011;6279;42.192;24.326;2022-10-31T13:05:40;7.35;;;2.50;;
12429;SDS011;6279;42.192;24.326;2022-10-31T13:08:15;6.13;;;3.35;;
12429;SDS011;6279;42.192;24.326;2022-10-31T13:16:18;8.07;;;2.38;;
12429;SDS011;6279;42.192;24.326;2022-10-31T13:18:47;4.05;;;2.22;;
12429;SDS011;6279;42.192;24.326;2022-10-31T13:21:23;4.15;;;2.05;;
12429;SDS011;6279;42.192;24.326;2022-10-31T13:23:52;4.50;;;1.95;;
12429;SDS011;6279;42.192;24.326;2022-10-31T13:26:35;4.88;;;2.30;;
12429;SDS011;6279;42.192;24.326;2022-10-31T13:29:18;6.95;;;2.30;;
12429;SDS011;6279;42.192;24.326;2022-10-31T13:31:49;8.20;;;2.05;;
12429;SDS011;6279;42.192;24.326;2022-10-31T13:34:28;3.30;;;1.70;;
12429;SDS011;6279;42.192;24.326;2022-10-31T13:37:00;6.55;;;2.60;;
12429;SDS011;6279;42.192;24.326;2022-10-31T13:42:04;7.95;;;2.55;;
12429;SDS011;6279;42.192;24.326;2022-10-31T13:44:36;5.63;;;2.03;;
12429;SDS011;6279;42.192;24.326;2022-10-31T13:50:03;3.20;;;2.00;;
12429;SDS011;6279;42.192;24.326;2022-10-31T13:52:43;6.00;;;2.25;;
12429;SDS011;6279;42.192;24.326;2022-10-31T13:58:19;6.95;;;2.25;;
12429;SDS011;6279;42.192;24.326;2022-10-31T14:00:46;5.43;;;2.10;;
12429;SDS011;6279;42.192;24.326;2022-10-31T14:03:22;7.80;;;2.17;;
12429;SDS011;6279;42.192;24.326;2022-10-31T14:05:53;5.28;;;1.80;;
12429;SDS011;6279;42.192;24.326;2022-10-31T14:08:21;9.00;;;3.17;;
12429;SDS011;6279;42.192;24.326;2022-10-31T14:10:49;9.48;;;2.80;;
12429;SDS011;6279;42.192;24.326;2022-10-31T14:13:22;22.13;;;6.65;;
12429;SDS011;6279;42.192;24.326;2022-10-31T14:15:57;18.58;;;6.55;;
12429;SDS011;6279;42.192;24.326;2022-10-31T14:20:56;13.77;;;5.65;;
12429;SDS011;6279;42.192;24.326;2022-10-31T14:23:32;14.52;;;6.28;;
12429;SDS011;6279;42.192;24.326;2022-10-31T14:28:33;22.77;;;8.32;;
12429;SDS011;6279;42.192;24.326;2022-10-31T14:31:00;19.90;;;7.82;;
12429;SDS011;6279;42.192;24.326;2022-10-31T14:33:26;19.95;;;7.53;;
12429;SDS011;6279;42.192;24.326;2022-10-31T14:35:59;24.98;;;6.63;;
12429;SDS011;6279;42.192;24.326;2022-10-31T14:38:50;11.38;;;5.65;;
12429;SDS011;6279;42.192;24.326;2022-10-31T14:41:24;30.42;;;6.30;;
12429;SDS011;6279;42.192;24.326;2022-10-31T14:49:17;22.98;;;7.55;;
12429;SDS011;6279;42.192;24.326;2022-10-31T14:51:53;29.60;;;8.23;;
12429;SDS011;6279;42.192;24.326;2022-10-31T14:54:27;41.80;;;9.20;;
12429;SDS011;6279;42.192;24.326;2022-10-31T14:57:04;44.60;;;8.70;;
12429;SDS011;6279;42.192;24.326;2022-10-31T14:59:41;51.70;;;12.97;;
12429;SDS011;6279;42.192;24.326;2022-10-31T15:02:18;100.67;;;53.17;;
12429;SDS011;6279;42.192;24.326;2022-10-31T15:04:49;57.37;;;18.20;;
12429;SDS011;6279;42.192;24.326;2022-10-31T15:07:26;47.87;;;16.20;;
12429;SDS011;6279;42.192;24.326;2022-10-31T15:09:55;110.03;;;58.43;;
12429;SDS011;6279;42.192;24.326;2022-10-31T15:14:51;122.63;;;62.10;;
12429;SDS011;6279;42.192;24.326;2022-10-31T15:17:17;94.83;;;41.93;;
12429;SDS011;6279;42.192;24.326;2022-10-31T15:19:43;115.00;;;52.13;;
12429;SDS011;6279;42.192;24.326;2022-10-31T15:22:16;69.50;;;25.63;;
12429;SDS011;6279;42.192;24.326;2022-10-31T15:24:44;75.80;;;33.00;;
12429;SDS011;6279;42.192;24.326;2022-10-31T15:27:14;34.37;;;14.90;;
12429;SDS011;6279;42.192;24.326;2022-10-31T15:29:48;38.27;;;15.67;;
12429;SDS011;6279;42.192;24.326;2022-10-31T15:32:19;48.07;;;15.07;;
12429;SDS011;6279;42.192;24.326;2022-10-31T15:34:49;34.13;;;11.63;;
12429;SDS011;6279;42.192;24.326;2022-10-31T15:37:28;28.97;;;11.13;;
12429;SDS011;6279;42.192;24.326;2022-10-31T15:39:54;43.63;;;10.60;;
12429;SDS011;6279;42.192;24.326;2022-10-31T15:47:44;28.13;;;9.37;;
12429;SDS011;6279;42.192;24.326;2022-10-31T15:52:57;34.37;;;10.33;;
12429;SDS011;6279;42.192;24.326;2022-10-31T15:55:25;39.23;;;9.80;;
12429;SDS011;6279;42.192;24.326;2022-10-31T15:58:03;29.90;;;12.37;;
12429;SDS011;6279;42.192;24.326;2022-10-31T16:00:36;30.23;;;11.40;;
12429;SDS011;6279;42.192;24.326;2022-10-31T16:05:47;45.20;;;11.67;;
12429;SDS011;6279;42.192;24.326;2022-10-31T16:08:22;29.07;;;10.37;;
12429;SDS011;6279;42.192;24.326;2022-10-31T16:10:50;32.07;;;10.90;;
12429;SDS011;6279;42.192;24.326;2022-10-31T16:13:16;39.87;;;14.83;;
12429;SDS011;6279;42.192;24.326;2022-10-31T16:15:49;32.50;;;12.63;;
12429;SDS011;6279;42.192;24.326;2022-10-31T16:18:18;16.97;;;7.40;;
12429;SDS011;6279;42.192;24.326;2022-10-31T16:20:53;19.03;;;8.03;;
12429;SDS011;6279;42.192;24.326;2022-10-31T16:23:21;22.80;;;8.73;;
12429;SDS011;6279;42.192;24.326;2022-10-31T16:25:49;23.50;;;8.70;;
12429;SDS011;6279;42.192;24.326;2022-10-31T16:28:16;41.03;;;10.73;;
12429;SDS011;6279;42.192;24.326;2022-10-31T16:30:44;35.33;;;11.33;;
12429;SDS011;6279;42.192;24.326;2022-10-31T16:33:22;26.93;;;10.37;;
12429;SDS011;6279;42.192;24.326;2022-10-31T16:35:56;40.70;;;11.43;;
12429;SDS011;6279;42.192;24.326;2022-10-31T16:38:22;33.70;;;8.60;;
12429;SDS011;6279;42.192;24.326;2022-10-31T16:40:48;28.53;;;9.80;;
12429;SDS011;6279;42.192;24.326;2022-10-31T16:43:15;27.70;;;9.53;;
12429;SDS011;6279;42.192;24.326;2022-10-31T16:45:49;30.90;;;11.10;;
12429;SDS011;6279;42.192;24.326;2022-10-31T16:48:17;31.80;;;12.63;;
12429;SDS011;6279;42.192;24.326;2022-10-31T16:50:45;31.77;;;11.43;;
12429;SDS011;6279;42.192;24.326;2022-10-31T16:53:11;34.00;;;12.87;;
12429;SDS011;6279;42.192;24.326;2022-10-31T16:55:48;33.37;;;11.53;;
12429;SDS011;6279;42.192;24.326;2022-10-31T16:58:20;29.30;;;14.40;;
12429;SDS011;6279;42.192;24.326;2022-10-31T17:00:48;35.27;;;15.37;;
12429;SDS011;6279;42.192;24.326;2022-10-31T17:03:14;37.27;;;13.97;;
12429;SDS011;6279;42.192;24.326;2022-10-31T17:05:39;23.10;;;12.40;;
12429;SDS011;6279;42.192;24.326;2022-10-31T17:08:05;30.97;;;13.57;;
12429;SDS011;6279;42.192;24.326;2022-10-31T17:10:30;24.67;;;10.57;;
12429;SDS011;6279;42.192;24.326;2022-10-31T17:12:56;26.30;;;12.10;;
12429;SDS011;6279;42.192;24.326;2022-10-31T17:15:24;36.10;;;12.37;;
12429;SDS011;6279;42.192;24.326;2022-10-31T17:17:51;35.03;;;12.43;;